sensor_id;sensor_type;location;lat;lon;timestamp;P1;durP1;ratioP1;P2;durP2;ratioP2
6135;SDS011;24008;42.664;23.372;2024-01-15T00:00:04;70.40;;;36.40;;
6135;SDS011;24008;42.664;23.372;2024-01-15T00:02:33;67.47;;;32.13;;
6135;SDS011;24008;42.664;23.372;2024-01-15T00:05:00;66.53;;;32.47;;
6135;SDS011;24008;42.664;23.372;2024-01-15T00:07:26;86.57;;;41.10;;
6135;SDS011;24008;42.664;23.372;2024-01-15T00:09:53;70.13;;;33.67;;
6135;SDS011;24008;42.664;23.372;2024-01-15T00:12:20;68.80;;;34.77;;
6135;SDS011;24008;42.664;23.372;2024-01-15T00:14:46;63.90;;;31.60;;
6135;SDS011;24008;42.664;23.372;2024-01-15T00:17:13;54.60;;;29.27;;
6135;SDS011;24008;42.664;23.372;2024-01-15T00:19:41;61.07;;;31.63;;
6135;SDS011;24008;42.664;23.372;2024-01-15T00:22:08;67.57;;;34.07;;
6135;SDS011;24008;42.664;23.372;2024-01-15T00:24:34;77.80;;;36.97;;
6135;SDS011;24008;42.664;23.372;2024-01-15T00:27:01;80.77;;;38.50;;
6135;SDS011;24008;42.664;23.372;2024-01-15T00:29:28;69.70;;;34.97;;
6135;SDS011;24008;42.664;23.372;2024-01-15T00:31:54;71.67;;;33.57;;
6135;SDS011;24008;42.664;23.372;2024-01-15T00:34:21;74.43;;;35.97;;
6135;SDS011;24008;42.664;23.372;2024-01-15T00:36:49;77.07;;;35.67;;
6135;SDS011;24008;42.664;23.372;2024-01-15T00:39:15;85.23;;;39.33;;
6135;SDS011;24008;42.664;23.372;2024-01-15T00:41:42;90.23;;;38.93;;
6135;SDS011;24008;42.664;23.372;2024-01-15T00:44:09;93.13;;;41.70;;
6135;SDS011;24008;42.664;23.372;2024-01-15T00:46:41;91.17;;;42.80;;
6135;SDS011;24008;42.664;23.372;2024-01-15T00:49:09;79.83;;;38.93;;
6135;SDS011;24008;42.664;23.372;2024-01-15T00:51:36;85.73;;;41.47;;
6135;SDS011;24008;42.664;23.372;2024-01-15T00:54:05;74.97;;;36.03;;
6135;SDS011;24008;42.664;23.372;2024-01-15T00:56:31;77.13;;;38.03;;
6135;SDS011;24008;42.664;23.372;2024-01-15T00:58:59;76.70;;;36.77;;
6135;SDS011;24008;42.664;23.372;2024-01-15T01:01:26;67.40;;;33.50;;
6135;SDS011;24008;42.664;23.372;2024-01-15T01:03:53;79.93;;;38.23;;
6135;SDS011;24008;42.664;23.372;2024-01-15T01:06:19;70.13;;;33.57;;
6135;SDS011;24008;42.664;23.372;2024-01-15T01:08:46;63.67;;;31.70;;
6135;SDS011;24008;42.664;23.372;2024-01-15T01:11:14;59.53;;;31.83;;
6135;SDS011;24008;42.664;23.372;2024-01-15T01:13:41;64.63;;;31.57;;
6135;SDS011;24008;42.664;23.372;2024-01-15T01:16:08;65.27;;;31.27;;
6135;SDS011;24008;42.664;23.372;2024-01-15T01:18:35;63.33;;;31.37;;
6135;SDS011;24008;42.664;23.372;2024-01-15T01:21:01;63.27;;;31.67;;
6135;SDS011;24008;42.664;23.372;2024-01-15T01:23:28;62.07;;;29.17;;
6135;SDS011;24008;42.664;23.372;2024-01-15T01:25:55;63.50;;;30.57;;
6135;SDS011;24008;42.664;23.372;2024-01-15T01:28:23;55.80;;;28.23;;
6135;SDS011;24008;42.664;23.372;2024-01-15T01:30:50;59.17;;;29.47;;
6135;SDS011;24008;42.664;23.372;2024-01-15T01:33:16;66.23;;;32.93;;
6135;SDS011;24008;42.664;23.372;2024-01-15T01:35:43;60.30;;;29.17;;
6135;SDS011;24008;42.664;23.372;2024-01-15T01:38:10;58.63;;;30.50;;
6135;SDS011;24008;42.664;23.372;2024-01-15T01:40:37;54.33;;;28.47;;
6135;SDS011;24008;42.664;23.372;2024-01-15T01:43:04;60.50;;;29.70;;
6135;SDS011;24008;42.664;23.372;2024-01-15T01:45:32;66.30;;;32.03;;
6135;SDS011;24008;42.664;23.372;2024-01-15T01:47:59;58.03;;;27.93;;
6135;SDS011;24008;42.664;23.372;2024-01-15T01:50:26;54.83;;;27.47;;
6135;SDS011;24008;42.664;23.372;2024-01-15T01:52:54;58.67;;;27.67;;
6135;SDS011;24008;42.664;23.372;2024-01-15T01:55:21;85.23;;;39.93;;
6135;SDS011;24008;42.664;23.372;2024-01-15T01:57:52;58.63;;;29.30;;
6135;SDS011;24008;42.664;23.372;2024-01-15T02:00:18;53.93;;;27.10;;
6135;SDS011;24008;42.664;23.372;2024-01-15T02:02:47;65.73;;;31.20;;
6135;SDS011;24008;42.664;23.372;2024-01-15T02:05:13;49.73;;;26.97;;
6135;SDS011;24008;42.664;23.372;2024-01-15T02:07:44;57.20;;;28.23;;
6135;SDS011;24008;42.664;23.372;2024-01-15T02:10:26;65.77;;;29.93;;
6135;SDS011;24008;42.664;23.372;2024-01-15T02:12:53;56.87;;;28.30;;
6135;SDS011;24008;42.664;23.372;2024-01-15T02:15:19;52.17;;;26.80;;
6135;SDS011;24008;42.664;23.372;2024-01-15T02:17:57;53.77;;;26.83;;
6135;SDS011;24008;42.664;23.372;2024-01-15T02:20:24;60.10;;;28.63;;
6135;SDS011;24008;42.664;23.372;2024-01-15T02:22:51;62.63;;;27.93;;
6135;SDS011;24008;42.664;23.372;2024-01-15T02:25:20;53.20;;;25.43;;
6135;SDS011;24008;42.664;23.372;2024-01-15T02:27:47;60.93;;;28.40;;
6135;SDS011;24008;42.664;23.372;2024-01-15T02:30:14;56.03;;;27.87;;
6135;SDS011;24008;42.664;23.372;2024-01-15T02:32:41;57.27;;;25.90;;
6135;SDS011;24008;42.664;23.372;2024-01-15T02:35:08;60.53;;;30.30;;
6135;SDS011;24008;42.664;23.372;2024-01-15T02:37:35;53.40;;;26.30;;
6135;SDS011;24008;42.664;23.372;2024-01-15T02:40:02;54.20;;;28.33;;
6135;SDS011;24008;42.664;23.372;2024-01-15T02:42:31;53.20;;;25.27;;
6135;SDS011;24008;42.664;23.372;2024-01-15T02:44:57;47.23;;;25.67;;
6135;SDS011;24008;42.664;23.372;2024-01-15T02:47:24;54.30;;;26.73;;
6135;SDS011;24008;42.664;23.372;2024-01-15T02:49:51;51.23;;;24.77;;
6135;SDS011;24008;42.664;23.372;2024-01-15T02:52:17;50.43;;;23.73;;
6135;SDS011;24008;42.664;23.372;2024-01-15T02:54:44;44.80;;;22.77;;
6135;SDS011;24008;42.664;23.372;2024-01-15T02:57:11;47.40;;;23.53;;
6135;SDS011;24008;42.664;23.372;2024-01-15T02:59:39;50.57;;;24.47;;
6135;SDS011;24008;42.664;23.372;2024-01-15T03:02:05;55.93;;;28.37;;
6135;SDS011;24008;42.664;23.372;2024-01-15T03:04:32;62.00;;;31.00;;
6135;SDS011;24008;42.664;23.372;2024-01-15T03:06:59;57.90;;;28.83;;
6135;SDS011;24008;42.664;23.372;2024-01-15T03:09:25;57.03;;;27.93;;
6135;SDS011;24008;42.664;23.372;2024-01-15T03:11:53;49.93;;;26.37;;
6135;SDS011;24008;42.664;23.372;2024-01-15T03:14:19;57.43;;;29.97;;
6135;SDS011;24008;42.664;23.372;2024-01-15T03:16:47;73.03;;;34.60;;
6135;SDS011;24008;42.664;23.372;2024-01-15T03:19:14;74.77;;;35.23;;
6135;SDS011;24008;42.664;23.372;2024-01-15T03:21:41;73.07;;;34.60;;
6135;SDS011;24008;42.664;23.372;2024-01-15T03:24:07;68.80;;;35.30;;
6135;SDS011;24008;42.664;23.372;2024-01-15T03:26:34;76.50;;;33.97;;
6135;SDS011;24008;42.664;23.372;2024-01-15T03:29:00;82.37;;;37.13;;
6135;SDS011;24008;42.664;23.372;2024-01-15T03:31:26;85.37;;;38.47;;
6135;SDS011;24008;42.664;23.372;2024-01-15T03:33:54;77.73;;;35.33;;
6135;SDS011;24008;42.664;23.372;2024-01-15T03:36:21;80.23;;;37.47;;
6135;SDS011;24008;42.664;23.372;2024-01-15T03:38:48;77.27;;;38.90;;
6135;SDS011;24008;42.664;23.372;2024-01-15T03:41:14;72.97;;;35.93;;
6135;SDS011;24008;42.664;23.372;2024-01-15T03:43:41;76.33;;;36.43;;
6135;SDS011;24008;42.664;23.372;2024-01-15T03:46:08;80.67;;;35.70;;
6135;SDS011;24008;42.664;23.372;2024-01-15T03:48:34;73.60;;;34.57;;
6135;SDS011;24008;42.664;23.372;2024-01-15T03:51:03;89.50;;;35.97;;
6135;SDS011;24008;42.664;23.372;2024-01-15T03:53:30;71.87;;;35.53;;
6135;SDS011;24008;42.664;23.372;2024-01-15T03:55:57;77.37;;;36.13;;
6135;SDS011;24008;42.664;23.372;2024-01-15T03:58:23;66.63;;;34.97;;
6135;SDS011;24008;42.664;23.372;2024-01-15T04:00:50;71.20;;;34.37;;
6135;SDS011;24008;42.664;23.372;2024-01-15T04:03:17;70.73;;;35.27;;
6135;SDS011;24008;42.664;23.372;2024-01-15T04:05:43;71.30;;;35.53;;
6135;SDS011;24008;42.664;23.372;2024-01-15T04:08:12;72.57;;;34.93;;
6135;SDS011;24008;42.664;23.372;2024-01-15T04:10:38;73.00;;;33.37;;
6135;SDS011;24008;42.664;23.372;2024-01-15T04:13:05;63.20;;;32.67;;
6135;SDS011;24008;42.664;23.372;2024-01-15T04:15:32;69.10;;;32.40;;
6135;SDS011;24008;42.664;23.372;2024-01-15T04:17:58;72.23;;;34.63;;
6135;SDS011;24008;42.664;23.372;2024-01-15T04:20:26;74.03;;;33.03;;
6135;SDS011;24008;42.664;23.372;2024-01-15T04:22:53;67.97;;;33.03;;
6135;SDS011;24008;42.664;23.372;2024-01-15T04:25:21;63.27;;;31.83;;
6135;SDS011;24008;42.664;23.372;2024-01-15T04:27:47;65.93;;;31.97;;
6135;SDS011;24008;42.664;23.372;2024-01-15T04:30:14;67.83;;;32.27;;
6135;SDS011;24008;42.664;23.372;2024-01-15T04:32:41;63.30;;;32.13;;
6135;SDS011;24008;42.664;23.372;2024-01-15T04:35:08;62.87;;;32.30;;
6135;SDS011;24008;42.664;23.372;2024-01-15T04:37:34;64.20;;;32.43;;
6135;SDS011;24008;42.664;23.372;2024-01-15T04:40:01;69.13;;;31.17;;
6135;SDS011;24008;42.664;23.372;2024-01-15T04:42:30;72.70;;;31.67;;
6135;SDS011;24008;42.664;23.372;2024-01-15T04:44:57;64.60;;;32.13;;
6135;SDS011;24008;42.664;23.372;2024-01-15T04:47:23;65.87;;;32.43;;
6135;SDS011;24008;42.664;23.372;2024-01-15T04:49:50;59.40;;;31.70;;
6135;SDS011;24008;42.664;23.372;2024-01-15T04:52:17;59.07;;;29.80;;
6135;SDS011;24008;42.664;23.372;2024-01-15T04:54:44;67.63;;;31.77;;
6135;SDS011;24008;42.664;23.372;2024-01-15T04:57:11;65.10;;;31.77;;
6135;SDS011;24008;42.664;23.372;2024-01-15T04:59:39;71.43;;;31.07;;
6135;SDS011;24008;42.664;23.372;2024-01-15T05:02:05;59.23;;;29.77;;
6135;SDS011;24008;42.664;23.372;2024-01-15T05:04:32;57.70;;;29.97;;
6135;SDS011;24008;42.664;23.372;2024-01-15T05:06:59;56.63;;;29.83;;
6135;SDS011;24008;42.664;23.372;2024-01-15T05:09:25;63.60;;;30.50;;
6135;SDS011;24008;42.664;23.372;2024-01-15T05:11:52;63.10;;;30.50;;
6135;SDS011;24008;42.664;23.372;2024-01-15T05:14:19;56.70;;;28.83;;
6135;SDS011;24008;42.664;23.372;2024-01-15T05:16:47;62.77;;;30.33;;
6135;SDS011;24008;42.664;23.372;2024-01-15T05:19:15;60.93;;;31.17;;
6135;SDS011;24008;42.664;23.372;2024-01-15T05:21:41;57.17;;;29.10;;
6135;SDS011;24008;42.664;23.372;2024-01-15T05:24:08;61.23;;;28.70;;
6135;SDS011;24008;42.664;23.372;2024-01-15T05:26:35;61.50;;;31.47;;
6135;SDS011;24008;42.664;23.372;2024-01-15T05:29:01;62.20;;;31.60;;
6135;SDS011;24008;42.664;23.372;2024-01-15T05:31:29;60.97;;;29.47;;
6135;SDS011;24008;42.664;23.372;2024-01-15T05:33:57;58.67;;;31.83;;
6135;SDS011;24008;42.664;23.372;2024-01-15T05:36:23;64.70;;;31.43;;
6135;SDS011;24008;42.664;23.372;2024-01-15T05:38:50;72.40;;;35.20;;
6135;SDS011;24008;42.664;23.372;2024-01-15T05:41:17;58.20;;;29.50;;
6135;SDS011;24008;42.664;23.372;2024-01-15T05:43:44;72.00;;;35.13;;
6135;SDS011;24008;42.664;23.372;2024-01-15T05:46:11;74.07;;;36.67;;
6135;SDS011;24008;42.664;23.372;2024-01-15T05:48:37;73.70;;;33.23;;
6135;SDS011;24008;42.664;23.372;2024-01-15T05:51:05;71.33;;;35.97;;
6135;SDS011;24008;42.664;23.372;2024-01-15T05:53:32;74.80;;;35.47;;
6135;SDS011;24008;42.664;23.372;2024-01-15T05:55:59;75.67;;;35.23;;
6135;SDS011;24008;42.664;23.372;2024-01-15T05:58:26;71.37;;;35.80;;
6135;SDS011;24008;42.664;23.372;2024-01-15T06:00:53;71.10;;;36.07;;
6135;SDS011;24008;42.664;23.372;2024-01-15T06:03:20;71.73;;;33.67;;
6135;SDS011;24008;42.664;23.372;2024-01-15T06:05:46;70.77;;;36.63;;
6135;SDS011;24008;42.664;23.372;2024-01-15T06:08:34;71.30;;;33.60;;
6135;SDS011;24008;42.664;23.372;2024-01-15T06:11:01;69.37;;;35.83;;
6135;SDS011;24008;42.664;23.372;2024-01-15T06:13:28;70.83;;;35.13;;
6135;SDS011;24008;42.664;23.372;2024-01-15T06:15:55;72.50;;;36.33;;
6135;SDS011;24008;42.664;23.372;2024-01-15T06:18:21;69.50;;;36.23;;
6135;SDS011;24008;42.664;23.372;2024-01-15T06:20:48;79.73;;;38.20;;
6135;SDS011;24008;42.664;23.372;2024-01-15T06:23:15;80.33;;;37.63;;
6135;SDS011;24008;42.664;23.372;2024-01-15T06:25:43;82.73;;;39.73;;
6135;SDS011;24008;42.664;23.372;2024-01-15T06:28:09;88.13;;;41.37;;
6135;SDS011;24008;42.664;23.372;2024-01-15T06:30:36;79.10;;;38.70;;
6135;SDS011;24008;42.664;23.372;2024-01-15T06:33:04;85.73;;;40.60;;
6135;SDS011;24008;42.664;23.372;2024-01-15T06:35:31;75.03;;;38.73;;
6135;SDS011;24008;42.664;23.372;2024-01-15T06:38:18;83.90;;;40.30;;
6135;SDS011;24008;42.664;23.372;2024-01-15T06:40:46;76.60;;;38.93;;
6135;SDS011;24008;42.664;23.372;2024-01-15T06:43:13;83.47;;;41.10;;
6135;SDS011;24008;42.664;23.372;2024-01-15T06:45:40;94.40;;;43.50;;
6135;SDS011;24008;42.664;23.372;2024-01-15T06:48:07;81.53;;;41.47;;
6135;SDS011;24008;42.664;23.372;2024-01-15T06:50:33;96.17;;;44.30;;
6135;SDS011;24008;42.664;23.372;2024-01-15T06:53:00;82.40;;;42.33;;
6135;SDS011;24008;42.664;23.372;2024-01-15T06:55:27;88.40;;;42.93;;
6135;SDS011;24008;42.664;23.372;2024-01-15T06:57:55;84.80;;;44.57;;
6135;SDS011;24008;42.664;23.372;2024-01-15T07:00:22;80.63;;;40.80;;
6135;SDS011;24008;42.664;23.372;2024-01-15T07:02:48;84.67;;;43.33;;
6135;SDS011;24008;42.664;23.372;2024-01-15T07:05:15;90.30;;;42.53;;
6135;SDS011;24008;42.664;23.372;2024-01-15T07:07:42;83.37;;;43.70;;
6135;SDS011;24008;42.664;23.372;2024-01-15T07:10:09;90.27;;;45.00;;
6135;SDS011;24008;42.664;23.372;2024-01-15T07:12:36;85.80;;;45.20;;
6135;SDS011;24008;42.664;23.372;2024-01-15T07:15:05;86.93;;;43.83;;
6135;SDS011;24008;42.664;23.372;2024-01-15T07:17:33;85.93;;;43.80;;
6135;SDS011;24008;42.664;23.372;2024-01-15T07:19:59;87.77;;;43.30;;
6135;SDS011;24008;42.664;23.372;2024-01-15T07:22:26;82.13;;;42.13;;
6135;SDS011;24008;42.664;23.372;2024-01-15T07:24:53;91.63;;;45.80;;
6135;SDS011;24008;42.664;23.372;2024-01-15T07:27:20;88.37;;;44.37;;
6135;SDS011;24008;42.664;23.372;2024-01-15T07:29:47;85.33;;;45.60;;
6135;SDS011;24008;42.664;23.372;2024-01-15T07:32:15;90.67;;;44.80;;
6135;SDS011;24008;42.664;23.372;2024-01-15T07:34:42;97.17;;;45.70;;
6135;SDS011;24008;42.664;23.372;2024-01-15T07:37:08;89.40;;;44.03;;
6135;SDS011;24008;42.664;23.372;2024-01-15T07:39:35;98.17;;;46.70;;
6135;SDS011;24008;42.664;23.372;2024-01-15T07:42:02;90.80;;;42.50;;
6135;SDS011;24008;42.664;23.372;2024-01-15T07:44:28;88.30;;;43.27;;
6135;SDS011;24008;42.664;23.372;2024-01-15T07:46:55;92.57;;;45.90;;
6135;SDS011;24008;42.664;23.372;2024-01-15T07:49:23;88.23;;;44.33;;
6135;SDS011;24008;42.664;23.372;2024-01-15T07:51:50;96.93;;;44.43;;
6135;SDS011;24008;42.664;23.372;2024-01-15T07:54:16;85.27;;;42.37;;
6135;SDS011;24008;42.664;23.372;2024-01-15T07:56:53;95.27;;;45.00;;
6135;SDS011;24008;42.664;23.372;2024-01-15T07:59:20;87.30;;;44.30;;
6135;SDS011;24008;42.664;23.372;2024-01-15T08:01:47;88.73;;;43.67;;
6135;SDS011;24008;42.664;23.372;2024-01-15T08:04:14;94.47;;;46.00;;
6135;SDS011;24008;42.664;23.372;2024-01-15T08:06:42;84.37;;;39.47;;
6135;SDS011;24008;42.664;23.372;2024-01-15T08:09:09;76.43;;;39.83;;
6135;SDS011;24008;42.664;23.372;2024-01-15T08:11:35;78.70;;;42.60;;
6135;SDS011;24008;42.664;23.372;2024-01-15T08:14:05;50.87;;;26.20;;
6135;SDS011;24008;42.664;23.372;2024-01-15T08:16:32;44.60;;;25.73;;
6135;SDS011;24008;42.664;23.372;2024-01-15T08:18:58;54.57;;;29.30;;
6135;SDS011;24008;42.664;23.372;2024-01-15T08:21:25;44.03;;;21.77;;
6135;SDS011;24008;42.664;23.372;2024-01-15T08:23:56;44.90;;;23.97;;
6135;SDS011;24008;42.664;23.372;2024-01-15T08:26:23;83.33;;;39.53;;
6135;SDS011;24008;42.664;23.372;2024-01-15T08:28:50;89.60;;;42.73;;
6135;SDS011;24008;42.664;23.372;2024-01-15T08:31:16;89.67;;;42.53;;
6135;SDS011;24008;42.664;23.372;2024-01-15T08:33:43;119.90;;;55.57;;
6135;SDS011;24008;42.664;23.372;2024-01-15T08:36:10;123.77;;;56.57;;
6135;SDS011;24008;42.664;23.372;2024-01-15T08:38:37;141.67;;;64.60;;
6135;SDS011;24008;42.664;23.372;2024-01-15T08:41:05;122.40;;;58.50;;
6135;SDS011;24008;42.664;23.372;2024-01-15T08:43:33;125.83;;;58.57;;
6135;SDS011;24008;42.664;23.372;2024-01-15T08:46:00;136.23;;;64.37;;
6135;SDS011;24008;42.664;23.372;2024-01-15T08:48:27;124.20;;;65.07;;
6135;SDS011;24008;42.664;23.372;2024-01-15T08:50:54;89.87;;;48.27;;
6135;SDS011;24008;42.664;23.372;2024-01-15T08:53:22;101.37;;;51.77;;
6135;SDS011;24008;42.664;23.372;2024-01-15T08:55:49;94.27;;;48.80;;
6135;SDS011;24008;42.664;23.372;2024-01-15T08:58:17;90.83;;;51.00;;
6135;SDS011;24008;42.664;23.372;2024-01-15T09:00:44;112.37;;;59.27;;
6135;SDS011;24008;42.664;23.372;2024-01-15T09:03:11;119.37;;;60.30;;
6135;SDS011;24008;42.664;23.372;2024-01-15T09:05:37;89.13;;;47.23;;
6135;SDS011;24008;42.664;23.372;2024-01-15T09:08:05;95.80;;;53.17;;
6135;SDS011;24008;42.664;23.372;2024-01-15T09:10:32;96.60;;;53.30;;
6135;SDS011;24008;42.664;23.372;2024-01-15T09:12:59;121.23;;;63.70;;
6135;SDS011;24008;42.664;23.372;2024-01-15T09:15:28;127.83;;;67.40;;
6135;SDS011;24008;42.664;23.372;2024-01-15T09:17:54;126.70;;;66.17;;
6135;SDS011;24008;42.664;23.372;2024-01-15T09:20:22;120.70;;;67.97;;
6135;SDS011;24008;42.664;23.372;2024-01-15T09:22:51;112.30;;;59.67;;
6135;SDS011;24008;42.664;23.372;2024-01-15T09:25:17;103.17;;;57.10;;
6135;SDS011;24008;42.664;23.372;2024-01-15T09:27:45;104.43;;;52.60;;
6135;SDS011;24008;42.664;23.372;2024-01-15T09:30:12;86.13;;;47.27;;
6135;SDS011;24008;42.664;23.372;2024-01-15T09:32:40;105.67;;;52.77;;
6135;SDS011;24008;42.664;23.372;2024-01-15T09:35:07;88.37;;;46.23;;
6135;SDS011;24008;42.664;23.372;2024-01-15T09:37:35;87.50;;;44.37;;
6135;SDS011;24008;42.664;23.372;2024-01-15T09:40:02;78.33;;;41.77;;
6135;SDS011;24008;42.664;23.372;2024-01-15T09:42:30;73.63;;;37.80;;
6135;SDS011;24008;42.664;23.372;2024-01-15T09:44:57;62.10;;;35.27;;
6135;SDS011;24008;42.664;23.372;2024-01-15T09:47:24;71.50;;;35.17;;
6135;SDS011;24008;42.664;23.372;2024-01-15T09:49:53;75.07;;;34.20;;
6135;SDS011;24008;42.664;23.372;2024-01-15T09:52:21;60.03;;;32.70;;
6135;SDS011;24008;42.664;23.372;2024-01-15T09:54:48;57.10;;;30.77;;
6135;SDS011;24008;42.664;23.372;2024-01-15T09:57:16;59.57;;;32.00;;
6135;SDS011;24008;42.664;23.372;2024-01-15T09:59:43;63.83;;;33.37;;
6135;SDS011;24008;42.664;23.372;2024-01-15T10:02:12;77.37;;;39.33;;
6135;SDS011;24008;42.664;23.372;2024-01-15T10:04:43;75.67;;;38.30;;
6135;SDS011;24008;42.664;23.372;2024-01-15T10:07:13;76.57;;;38.30;;
6135;SDS011;24008;42.664;23.372;2024-01-15T10:09:44;59.53;;;30.40;;
6135;SDS011;24008;42.664;23.372;2024-01-15T10:12:12;64.40;;;34.10;;
6135;SDS011;24008;42.664;23.372;2024-01-15T10:14:39;66.30;;;34.57;;
6135;SDS011;24008;42.664;23.372;2024-01-15T10:17:11;51.27;;;27.33;;
6135;SDS011;24008;42.664;23.372;2024-01-15T10:19:39;44.67;;;25.10;;
6135;SDS011;24008;42.664;23.372;2024-01-15T10:22:07;57.37;;;30.33;;
6135;SDS011;24008;42.664;23.372;2024-01-15T10:24:36;83.30;;;31.83;;
6135;SDS011;24008;42.664;23.372;2024-01-15T10:27:07;61.83;;;32.17;;
6135;SDS011;24008;42.664;23.372;2024-01-15T10:29:34;59.53;;;31.87;;
6135;SDS011;24008;42.664;23.372;2024-01-15T10:32:01;63.80;;;32.53;;
6135;SDS011;24008;42.664;23.372;2024-01-15T10:34:30;60.23;;;31.33;;
6135;SDS011;24008;42.664;23.372;2024-01-15T10:36:57;55.97;;;31.60;;
6135;SDS011;24008;42.664;23.372;2024-01-15T10:39:23;68.33;;;36.10;;
6135;SDS011;24008;42.664;23.372;2024-01-15T10:41:52;64.93;;;36.13;;
6135;SDS011;24008;42.664;23.372;2024-01-15T10:44:19;75.83;;;40.10;;
6135;SDS011;24008;42.664;23.372;2024-01-15T10:46:45;86.47;;;41.07;;
6135;SDS011;24008;42.664;23.372;2024-01-15T10:49:13;82.43;;;41.23;;
6135;SDS011;24008;42.664;23.372;2024-01-15T10:51:40;84.27;;;41.10;;
6135;SDS011;24008;42.664;23.372;2024-01-15T10:54:08;84.87;;;42.60;;
6135;SDS011;24008;42.664;23.372;2024-01-15T10:56:36;89.47;;;42.23;;
6135;SDS011;24008;42.664;23.372;2024-01-15T10:59:05;80.50;;;42.93;;
6135;SDS011;24008;42.664;23.372;2024-01-15T11:01:33;86.83;;;43.30;;
6135;SDS011;24008;42.664;23.372;2024-01-15T11:04:00;91.80;;;45.97;;
6135;SDS011;24008;42.664;23.372;2024-01-15T11:06:27;93.37;;;45.23;;
6135;SDS011;24008;42.664;23.372;2024-01-15T11:09:07;90.00;;;46.27;;
6135;SDS011;24008;42.664;23.372;2024-01-15T11:11:34;86.73;;;47.30;;
6135;SDS011;24008;42.664;23.372;2024-01-15T11:14:01;98.50;;;46.70;;
6135;SDS011;24008;42.664;23.372;2024-01-15T11:16:47;101.67;;;49.10;;
6135;SDS011;24008;42.664;23.372;2024-01-15T11:19:21;88.03;;;46.27;;
6135;SDS011;24008;42.664;23.372;2024-01-15T11:21:47;97.57;;;47.77;;
6135;SDS011;24008;42.664;23.372;2024-01-15T11:27:00;64.53;;;32.63;;
6135;SDS011;24008;42.664;23.372;2024-01-15T11:29:30;72.63;;;37.43;;
6135;SDS011;24008;42.664;23.372;2024-01-15T11:32:02;73.13;;;37.07;;
6135;SDS011;24008;42.664;23.372;2024-01-15T11:37:16;65.03;;;33.57;;
6135;SDS011;24008;42.664;23.372;2024-01-15T11:39:43;62.73;;;33.83;;
6135;SDS011;24008;42.664;23.372;2024-01-15T11:42:12;62.23;;;34.73;;
6135;SDS011;24008;42.664;23.372;2024-01-15T11:44:39;70.97;;;36.27;;
6135;SDS011;24008;42.664;23.372;2024-01-15T11:47:08;64.30;;;34.87;;
6135;SDS011;24008;42.664;23.372;2024-01-15T11:49:48;61.43;;;33.47;;
6135;SDS011;24008;42.664;23.372;2024-01-15T11:52:25;61.43;;;34.00;;
6135;SDS011;24008;42.664;23.372;2024-01-15T11:54:55;55.90;;;30.83;;
6135;SDS011;24008;42.664;23.372;2024-01-15T11:57:30;51.83;;;29.60;;
6135;SDS011;24008;42.664;23.372;2024-01-15T12:00:12;40.60;;;20.10;;
6135;SDS011;24008;42.664;23.372;2024-01-15T12:02:41;54.87;;;27.73;;
6135;SDS011;24008;42.664;23.372;2024-01-15T12:05:09;50.20;;;28.70;;
6135;SDS011;24008;42.664;23.372;2024-01-15T12:07:38;53.77;;;29.83;;
6135;SDS011;24008;42.664;23.372;2024-01-15T12:10:08;51.60;;;26.63;;
6135;SDS011;24008;42.664;23.372;2024-01-15T12:12:40;51.30;;;26.67;;
6135;SDS011;24008;42.664;23.372;2024-01-15T12:15:15;54.17;;;28.63;;
6135;SDS011;24008;42.664;23.372;2024-01-15T12:17:43;54.27;;;29.17;;
6135;SDS011;24008;42.664;23.372;2024-01-15T12:20:12;46.83;;;27.90;;
6135;SDS011;24008;42.664;23.372;2024-01-15T12:22:40;60.40;;;28.30;;
6135;SDS011;24008;42.664;23.372;2024-01-15T12:25:11;48.93;;;27.07;;
6135;SDS011;24008;42.664;23.372;2024-01-15T12:27:37;50.43;;;27.50;;
6135;SDS011;24008;42.664;23.372;2024-01-15T12:30:04;47.40;;;26.20;;
6135;SDS011;24008;42.664;23.372;2024-01-15T12:32:32;42.63;;;24.57;;
6135;SDS011;24008;42.664;23.372;2024-01-15T12:35:06;51.50;;;26.13;;
6135;SDS011;24008;42.664;23.372;2024-01-15T12:37:44;45.83;;;25.90;;
6135;SDS011;24008;42.664;23.372;2024-01-15T12:40:11;48.60;;;26.17;;
6135;SDS011;24008;42.664;23.372;2024-01-15T12:42:40;45.33;;;24.43;;
6135;SDS011;24008;42.664;23.372;2024-01-15T12:45:07;48.40;;;25.37;;
6135;SDS011;24008;42.664;23.372;2024-01-15T12:47:35;46.07;;;25.07;;
6135;SDS011;24008;42.664;23.372;2024-01-15T12:50:06;47.10;;;26.33;;
6135;SDS011;24008;42.664;23.372;2024-01-15T12:52:33;48.73;;;24.70;;
6135;SDS011;24008;42.664;23.372;2024-01-15T12:55:00;53.33;;;25.10;;
6135;SDS011;24008;42.664;23.372;2024-01-15T12:57:27;47.30;;;25.73;;
6135;SDS011;24008;42.664;23.372;2024-01-15T12:59:54;54.70;;;25.70;;
6135;SDS011;24008;42.664;23.372;2024-01-15T13:02:21;54.10;;;26.57;;
6135;SDS011;24008;42.664;23.372;2024-01-15T13:04:48;44.23;;;24.97;;
6135;SDS011;24008;42.664;23.372;2024-01-15T13:07:16;50.37;;;25.77;;
6135;SDS011;24008;42.664;23.372;2024-01-15T13:09:42;48.93;;;26.27;;
6135;SDS011;24008;42.664;23.372;2024-01-15T13:12:09;50.33;;;25.87;;
6135;SDS011;24008;42.664;23.372;2024-01-15T13:14:36;55.37;;;32.80;;
6135;SDS011;24008;42.664;23.372;2024-01-15T13:17:03;50.03;;;28.37;;
6135;SDS011;24008;42.664;23.372;2024-01-15T13:19:31;42.80;;;25.60;;
6135;SDS011;24008;42.664;23.372;2024-01-15T13:21:59;48.60;;;26.10;;
6135;SDS011;24008;42.664;23.372;2024-01-15T13:24:27;52.37;;;28.07;;
6135;SDS011;24008;42.664;23.372;2024-01-15T13:26:53;55.83;;;27.80;;
6135;SDS011;24008;42.664;23.372;2024-01-15T13:29:22;59.37;;;27.93;;
6135;SDS011;24008;42.664;23.372;2024-01-15T13:31:49;55.50;;;28.73;;
6135;SDS011;24008;42.664;23.372;2024-01-15T13:34:19;49.27;;;27.53;;
6135;SDS011;24008;42.664;23.372;2024-01-15T13:36:50;44.57;;;24.57;;
6135;SDS011;24008;42.664;23.372;2024-01-15T13:39:18;50.67;;;26.43;;
6135;SDS011;24008;42.664;23.372;2024-01-15T13:41:50;56.80;;;27.83;;
6135;SDS011;24008;42.664;23.372;2024-01-15T13:44:16;59.67;;;29.97;;
6135;SDS011;24008;42.664;23.372;2024-01-15T13:46:54;56.70;;;27.93;;
6135;SDS011;24008;42.664;23.372;2024-01-15T13:49:58;57.80;;;29.97;;
6135;SDS011;24008;42.664;23.372;2024-01-15T13:52:25;59.27;;;29.33;;
6135;SDS011;24008;42.664;23.372;2024-01-15T13:54:53;59.77;;;32.00;;
6135;SDS011;24008;42.664;23.372;2024-01-15T13:57:21;62.67;;;31.20;;
6135;SDS011;24008;42.664;23.372;2024-01-15T13:59:48;67.03;;;30.10;;
6135;SDS011;24008;42.664;23.372;2024-01-15T14:02:15;65.43;;;32.40;;
6135;SDS011;24008;42.664;23.372;2024-01-15T14:04:41;62.17;;;29.77;;
6135;SDS011;24008;42.664;23.372;2024-01-15T14:07:08;61.07;;;31.47;;
6135;SDS011;24008;42.664;23.372;2024-01-15T14:09:35;69.00;;;33.53;;
6135;SDS011;24008;42.664;23.372;2024-01-15T14:12:02;65.67;;;33.03;;
6135;SDS011;24008;42.664;23.372;2024-01-15T14:14:31;55.97;;;30.77;;
6135;SDS011;24008;42.664;23.372;2024-01-15T14:16:58;63.63;;;31.43;;
6135;SDS011;24008;42.664;23.372;2024-01-15T14:19:25;59.50;;;31.23;;
6135;SDS011;24008;42.664;23.372;2024-01-15T14:21:52;55.17;;;30.37;;
6135;SDS011;24008;42.664;23.372;2024-01-15T14:24:18;60.80;;;32.43;;
6135;SDS011;24008;42.664;23.372;2024-01-15T14:26:45;61.53;;;30.37;;
6135;SDS011;24008;42.664;23.372;2024-01-15T14:29:12;64.60;;;29.50;;